createdAt,value
2019-02-17T00:00:42.867Z,4.26
2019-02-17T00:01:43.103Z,4.21
2019-02-17T00:02:43.077Z,4.24
2019-02-17T00:03:43.315Z,4.19
2019-02-17T00:04:43.297Z,4.25
2019-02-17T00:05:43.020Z,4.25
2019-02-17T00:06:43.275Z,4.25
2019-02-17T00:07:42.989Z,4.21
2019-02-17T00:08:43.213Z,4.24
2019-02-17T00:09:42.936Z,4.22
2019-02-17T00:10:42.915Z,4.28
2019-02-17T00:11:43.148Z,4.28
2019-02-17T00:12:43.140Z,4.28
2019-02-17T00:13:43.133Z,4.29
2019-02-17T00:14:42.997Z,4.34
2019-02-17T00:15:42.809Z,4.29
2019-02-17T00:16:43.060Z,4.37
2019-02-17T00:17:43.048Z,4.26
2019-02-17T00:18:43.034Z,4.34
2019-02-17T00:19:42.796Z,4.28
2019-02-17T00:20:42.976Z,4.36
2019-02-17T00:21:42.689Z,4.36
2019-02-17T00:22:42.675Z,4.29
2019-02-17T00:23:42.908Z,4.33
2019-02-17T00:24:42.634Z,4.25
2019-02-17T00:25:42.867Z,4.32
2019-02-17T00:26:42.855Z,4.25
2019-02-17T00:27:42.828Z,4.24
2019-02-17T00:28:42.812Z,4.24
2019-02-17T00:29:42.540Z,4.21
2019-02-17T00:30:42.767Z,4.22
2019-02-17T00:31:42.496Z,4.22
2019-02-17T00:32:42.470Z,4.21
2019-02-17T00:33:42.204Z,4.21
2019-02-17T00:34:42.691Z,4.25
2019-02-17T00:35:42.748Z,4.26
2019-02-17T00:36:42.393Z,4.28
2019-02-17T00:37:42.636Z,4.24
2019-02-17T00:38:42.613Z,4.29
2019-02-17T00:39:42.329Z,4.21
2019-02-17T00:40:42.054Z,4.28
2019-02-17T00:41:42.061Z,4.32
2019-02-17T00:42:42.300Z,4.34
2019-02-17T00:43:42.260Z,4.32
2019-02-17T00:44:41.968Z,4.33
2019-02-17T00:45:42.199Z,4.34
2019-02-17T00:46:41.937Z,4.29
2019-02-17T00:47:42.427Z,4.32
2019-02-17T00:48:42.392Z,4.33
2019-02-17T00:49:41.864Z,4.33
2019-02-17T00:50:42.351Z,4.28
2019-02-17T00:51:43.701Z,4.25
2019-02-17T00:52:42.069Z,4.26
2019-02-17T00:53:42.302Z,4.29
2019-02-17T00:54:42.068Z,4.29
2019-02-17T00:55:42.029Z,4.22
2019-02-17T00:56:41.727Z,4.28
2019-02-17T00:57:41.962Z,4.25
2019-02-17T00:58:41.680Z,4.37
2019-02-17T00:59:41.925Z,4.4
2019-02-17T01:00:41.907Z,4.36
2019-02-17T01:01:41.629Z,4.34
2019-02-17T01:02:42.126Z,4.36
2019-02-17T01:03:41.890Z,4.36
2019-02-17T01:04:41.828Z,4.28
2019-02-17T01:05:41.800Z,4.4
2019-02-17T01:06:41.779Z,4.37
2019-02-17T01:07:42.016Z,4.33
2019-02-17T01:08:41.753Z,4.36
2019-02-17T01:09:41.721Z,4.24
2019-02-17T01:10:41.694Z,4.29
2019-02-17T01:11:42.003Z,4.32
2019-02-17T01:12:41.860Z,4.26
2019-02-17T01:13:41.899Z,4.25
2019-02-17T01:14:41.428Z,4.24
2019-02-17T01:15:41.341Z,4.25
2019-02-17T01:16:41.834Z,4.28
2019-02-17T01:17:41.820Z,4.24
2019-02-17T01:18:41.819Z,4.25
2019-02-17T01:19:41.519Z,4.22
2019-02-17T01:20:41.750Z,4.19
2019-02-17T01:21:41.563Z,4.18
2019-02-17T01:22:41.709Z,4.12
2019-02-17T01:23:41.178Z,4.1
2019-02-17T01:24:41.162Z,4.1
2019-02-17T01:25:41.661Z,4.16
2019-02-17T01:26:41.383Z,4.01
2019-02-17T01:27:41.359Z,4.07
2019-02-17T01:28:41.325Z,4.03
2019-02-17T01:29:41.307Z,4.04
2019-02-17T01:30:41.552Z,4.06
2019-02-17T01:31:41.285Z,4.07
2019-02-17T01:32:41.499Z,4.12
2019-02-17T01:33:41.263Z,3.98
2019-02-17T01:34:41.930Z,4.07
2019-02-17T01:35:41.462Z,4.03
2019-02-17T01:36:40.919Z,4.03
2019-02-17T01:37:41.151Z,4
2019-02-17T01:38:40.874Z,3.96
2019-02-17T01:39:41.354Z,3.97
2019-02-17T01:40:41.336Z,3.94
2019-02-17T01:41:40.820Z,3.9
2019-02-17T01:42:41.330Z,3.88
2019-02-17T01:43:41.279Z,3.88
2019-02-17T01:44:41.259Z,3.83
2019-02-17T01:45:41.237Z,3.83
2019-02-17T01:46:43.105Z,3.88
2019-02-17T01:47:41.213Z,3.83
2019-02-17T01:48:41.181Z,3.83
2019-02-17T01:49:40.942Z,3.75
2019-02-17T01:50:41.148Z,3.82
2019-02-17T01:51:40.603Z,3.83
2019-02-17T01:52:40.627Z,3.88
2019-02-17T01:53:40.765Z,3.75
2019-02-17T01:54:40.794Z,3.75
2019-02-17T01:55:40.526Z,3.78
2019-02-17T01:56:40.752Z,3.79
2019-02-17T01:57:40.749Z,3.71
2019-02-17T01:58:40.968Z,3.76
2019-02-17T01:59:40.691Z,3.75
2019-02-17T02:00:40.926Z,3.71
2019-02-17T02:01:40.757Z,3.76
2019-02-17T02:02:40.636Z,3.76
2019-02-17T02:03:40.648Z,3.76
2019-02-17T02:04:40.585Z,3.67
2019-02-17T02:05:40.831Z,3.58
2019-02-17T02:06:40.554Z,3.64
2019-02-17T02:07:40.560Z,3.61
2019-02-17T02:08:40.776Z,3.64
2019-02-17T02:09:40.233Z,3.68
2019-02-17T02:10:40.460Z,3.57
2019-02-17T02:11:40.450Z,3.54
2019-02-17T02:12:40.427Z,3.64
2019-02-17T02:13:40.150Z,3.72
2019-02-17T02:14:40.732Z,3.76
2019-02-17T02:15:40.359Z,3.79
2019-02-17T02:16:40.647Z,3.83
2019-02-17T02:17:40.068Z,3.86
2019-02-17T02:18:40.300Z,3.94
2019-02-17T02:19:40.021Z,3.98
2019-02-17T02:20:40.515Z,4
2019-02-17T02:21:40.513Z,3.98
2019-02-17T02:22:40.472Z,4.01
2019-02-17T02:23:40.208Z,4.01
2019-02-17T02:24:40.507Z,4.04
2019-02-17T02:25:40.411Z,4.03
2019-02-17T02:26:40.162Z,4
2019-02-17T02:27:40.372Z,3.97
2019-02-17T02:28:40.352Z,4
2019-02-17T02:29:45.940Z,3.96
2019-02-17T02:30:40.064Z,3.97
2019-02-17T02:31:40.055Z,3.89
2019-02-17T02:32:40.351Z,3.85
2019-02-17T02:33:40.237Z,3.86
2019-02-17T02:34:40.219Z,3.86
2019-02-17T02:35:40.227Z,3.83
2019-02-17T02:36:39.700Z,3.78
2019-02-17T02:37:40.169Z,3.72
2019-02-17T02:38:40.136Z,3.75
2019-02-17T02:39:39.864Z,3.76
2019-02-17T02:40:40.101Z,3.67
2019-02-17T02:41:40.223Z,3.68
2019-02-17T02:42:40.064Z,3.65
2019-02-17T02:43:39.787Z,3.7
2019-02-17T02:44:40.032Z,3.61
2019-02-17T02:45:40.004Z,3.62
2019-02-17T02:46:39.971Z,3.57
2019-02-17T02:47:39.957Z,3.58
2019-02-17T02:48:39.430Z,3.61
2019-02-17T02:49:39.486Z,3.57
2019-02-17T02:50:39.634Z,3.61
2019-02-17T02:51:39.649Z,3.6
2019-02-17T02:52:39.383Z,3.61
2019-02-17T02:53:39.829Z,3.54
2019-02-17T02:54:39.812Z,3.47
2019-02-17T02:55:39.556Z,3.57
2019-02-17T02:56:39.516Z,3.53
2019-02-17T02:57:39.798Z,3.58
2019-02-17T02:58:39.723Z,3.49
2019-02-17T02:59:39.464Z,3.53
2019-02-17T03:00:39.424Z,3.58
2019-02-17T03:01:39.687Z,3.57
2019-02-17T03:02:39.637Z,3.49
2019-02-17T03:03:39.628Z,3.49
2019-02-17T03:04:39.342Z,3.49
2019-02-17T03:05:39.577Z,3.58
2019-02-17T03:06:39.571Z,3.53
2019-02-17T03:07:39.280Z,3.53
2019-02-17T03:08:39.257Z,3.62
2019-02-17T03:09:39.248Z,3.61
2019-02-17T03:10:39.581Z,3.61
2019-02-17T03:11:38.959Z,3.58
2019-02-17T03:12:39.208Z,3.62
2019-02-17T03:13:39.443Z,3.54
2019-02-17T03:14:39.391Z,3.57
2019-02-17T03:15:39.448Z,3.62
2019-02-17T03:16:39.100Z,3.6
2019-02-17T03:17:39.353Z,3.53
2019-02-17T03:18:39.063Z,3.52
2019-02-17T03:19:39.358Z,3.57
2019-02-17T03:20:39.260Z,3.57
2019-02-17T03:21:38.994Z,3.57
2019-02-17T03:22:39.226Z,3.52
2019-02-17T03:23:38.947Z,3.57
2019-02-17T03:24:39.186Z,3.54
2019-02-17T03:25:39.171Z,3.58
2019-02-17T03:26:38.893Z,3.6
2019-02-17T03:27:39.117Z,3.53
2019-02-17T03:28:39.095Z,3.58
2019-02-17T03:29:38.828Z,3.58
2019-02-17T03:30:38.651Z,3.62
2019-02-17T03:31:39.041Z,3.52
2019-02-17T03:32:38.770Z,3.49
2019-02-17T03:33:38.755Z,3.47
2019-02-17T03:34:38.469Z,3.46
2019-02-17T03:35:38.912Z,3.44
2019-02-17T03:36:38.947Z,3.44
2019-02-17T03:37:38.941Z,3.47
2019-02-17T03:38:38.895Z,3.49
2019-02-17T03:39:38.352Z,3.5
2019-02-17T03:40:38.339Z,3.47
2019-02-17T03:41:38.310Z,3.47
2019-02-17T03:42:38.298Z,3.5
2019-02-17T03:43:38.524Z,3.4
2019-02-17T03:44:38.512Z,3.4
2019-02-17T03:45:38.737Z,3.42
2019-02-17T03:46:38.720Z,3.42
2019-02-17T03:47:38.696Z,3.4
2019-02-17T03:48:38.683Z,3.4
2019-02-17T03:49:38.412Z,3.34
2019-02-17T03:50:38.643Z,3.33
2019-02-17T03:51:38.105Z,3.44
2019-02-17T03:52:38.341Z,3.34
2019-02-17T03:53:38.332Z,3.39
2019-02-17T03:54:38.291Z,3.34
2019-02-17T03:55:38.550Z,3.42
2019-02-17T03:56:38.522Z,3.43
2019-02-17T03:57:38.243Z,3.42
2019-02-17T03:58:38.620Z,3.33
2019-02-17T03:59:38.459Z,3.27
2019-02-17T04:00:38.184Z,3.42
2019-02-17T04:01:38.413Z,3.39
2019-02-17T04:02:38.149Z,3.25
2019-02-17T04:03:38.374Z,3.36
2019-02-17T04:04:38.107Z,3.44
2019-02-17T04:05:38.363Z,3.33
2019-02-17T04:06:37.814Z,3.33
2019-02-17T04:07:38.037Z,3.36
2019-02-17T04:08:38.274Z,3.36
2019-02-17T04:09:37.981Z,3.36
2019-02-17T04:10:38.227Z,3.36
2019-02-17T04:11:38.207Z,3.42
2019-02-17T04:12:38.202Z,3.42
2019-02-17T04:13:38.188Z,3.36
2019-02-17T04:14:38.142Z,3.44
2019-02-17T04:15:37.599Z,3.34
2019-02-17T04:16:38.121Z,3.31
2019-02-17T04:17:38.111Z,3.42
2019-02-17T04:18:37.538Z,3.34
2019-02-17T04:19:37.778Z,3.39
2019-02-17T04:20:37.495Z,3.4
2019-02-17T04:21:38.496Z,3.43
2019-02-17T04:22:37.456Z,3.43
2019-02-17T04:23:37.943Z,3.52
2019-02-17T04:24:37.678Z,3.52
2019-02-17T04:25:37.400Z,3.46
2019-02-17T04:26:37.668Z,3.52
2019-02-17T04:27:37.657Z,3.5
2019-02-17T04:28:37.848Z,3.52
2019-02-17T04:29:37.572Z,3.39
2019-02-17T04:30:37.802Z,3.47
2019-02-17T04:31:37.271Z,3.43
2019-02-17T04:32:37.785Z,3.42
2019-02-17T04:33:37.482Z,3.49
2019-02-17T04:34:37.224Z,3.47
2019-02-17T04:35:37.701Z,3.42
2019-02-17T04:36:37.444Z,3.42
2019-02-17T04:37:37.399Z,3.42
2019-02-17T04:38:37.657Z,3.43
2019-02-17T04:39:37.113Z,3.36
2019-02-17T04:40:37.331Z,3.42
2019-02-17T04:41:37.576Z,3.34
2019-02-17T04:42:37.305Z,3.4
2019-02-17T04:43:37.273Z,3.42
2019-02-17T04:44:37.413Z,3.46
2019-02-17T04:45:37.498Z,3.44
2019-02-17T04:46:37.499Z,3.42
2019-02-17T04:47:37.188Z,3.4
2019-02-17T04:48:37.418Z,3.42
2019-02-17T04:49:37.139Z,3.46
2019-02-17T04:50:37.392Z,3.4
2019-02-17T04:51:36.847Z,3.4
2019-02-17T04:52:37.347Z,3.42
2019-02-17T04:53:37.335Z,3.42
2019-02-17T04:54:36.790Z,3.43
2019-02-17T04:55:37.041Z,3.4
2019-02-17T04:56:37.293Z,3.31
2019-02-17T04:57:37.272Z,3.43
2019-02-17T04:58:37.219Z,3.28
2019-02-17T04:59:37.288Z,3.36
2019-02-17T05:00:45.179Z,3.43
2019-02-17T05:01:36.904Z,3.31
2019-02-17T05:02:37.172Z,3.25
2019-02-17T05:03:36.860Z,3.27
2019-02-17T05:04:37.100Z,3.27
2019-02-17T05:05:36.812Z,3.28
2019-02-17T05:06:36.792Z,3.21
2019-02-17T05:07:37.042Z,3.27
2019-02-17T05:08:36.756Z,3.25
2019-02-17T05:09:37.002Z,3.28
2019-02-17T05:10:36.739Z,3.25
2019-02-17T05:11:36.941Z,3.27
2019-02-17T05:12:36.670Z,3.15
2019-02-17T05:13:36.662Z,3.2
2019-02-17T05:14:36.632Z,3.21
2019-02-17T05:15:36.859Z,3.2
2019-02-17T05:16:36.585Z,3.18
2019-02-17T05:17:36.580Z,3.2
2019-02-17T05:18:36.804Z,3.21
2019-02-17T05:19:36.774Z,3.16
2019-02-17T05:20:36.766Z,3.21
2019-02-17T05:21:36.486Z,3.23
2019-02-17T05:22:39.273Z,3.2
2019-02-17T05:23:36.188Z,3.15
2019-02-17T05:24:36.623Z,3.21
2019-02-17T05:25:36.396Z,3.12
2019-02-17T05:26:36.393Z,3.2
2019-02-17T05:27:36.356Z,3.18
2019-02-17T05:28:36.329Z,3.2
2019-02-17T05:29:36.565Z,3.31
2019-02-17T05:30:36.289Z,3.13
2019-02-17T05:31:36.516Z,3.25
2019-02-17T05:32:36.508Z,3.21
2019-02-17T05:33:36.517Z,3.25
2019-02-17T05:34:35.946Z,3.27
2019-02-17T05:35:36.414Z,3.3
2019-02-17T05:36:36.417Z,3.25
2019-02-17T05:37:36.407Z,3.27
2019-02-17T05:38:36.390Z,3.2
2019-02-17T05:39:36.166Z,3.16
2019-02-17T05:40:38.681Z,3.23
2019-02-17T05:41:36.336Z,3.12
2019-02-17T05:42:36.034Z,3.18
2019-02-17T05:43:36.011Z,3.18
2019-02-17T05:44:36.330Z,3.15
2019-02-17T05:45:36.226Z,3.15
2019-02-17T05:46:35.947Z,3.16
2019-02-17T05:47:36.186Z,3.13
2019-02-17T05:48:36.175Z,3.1
2019-02-17T05:49:36.147Z,3.12
2019-02-17T05:50:35.866Z,3.06
2019-02-17T05:51:35.848Z,3.18
2019-02-17T05:52:36.078Z,3.15
2019-02-17T05:53:35.815Z,3.1
2019-02-17T05:54:36.055Z,3.03
2019-02-17T05:55:35.515Z,3.07
2019-02-17T05:56:35.992Z,3.09
2019-02-17T05:57:35.797Z,3.09
2019-02-17T05:58:35.436Z,3.05
2019-02-17T05:59:35.928Z,3.13
2019-02-17T06:00:35.403Z,3.1
2019-02-17T06:01:35.895Z,3.06
2019-02-17T06:02:35.872Z,3.06
2019-02-17T06:03:35.590Z,3.09
2019-02-17T06:04:35.867Z,3.07
2019-02-17T06:05:35.814Z,3.05
2019-02-17T06:06:35.784Z,3.09
2019-02-17T06:07:35.508Z,3.1
2019-02-17T06:08:35.487Z,3.06
2019-02-17T06:09:35.487Z,3.06
2019-02-17T06:10:35.695Z,3.13
2019-02-17T06:11:35.162Z,3.07
2019-02-17T06:12:35.450Z,3.16
2019-02-17T06:13:35.161Z,3.15
2019-02-17T06:14:35.672Z,3.13
2019-02-17T06:15:35.594Z,3.2
2019-02-17T06:16:35.065Z,3.12
2019-02-17T06:17:35.309Z,3.13
2019-02-17T06:18:35.611Z,3.18
2019-02-17T06:19:35.258Z,3.1
2019-02-17T06:20:34.972Z,3.15
2019-02-17T06:21:35.459Z,3.15
2019-02-17T06:22:35.193Z,3.12
2019-02-17T06:23:35.419Z,3.13
2019-02-17T06:24:35.204Z,3.1
2019-02-17T06:25:35.391Z,3.13
2019-02-17T06:26:34.849Z,3.12
2019-02-17T06:27:35.076Z,3.13
2019-02-17T06:28:35.056Z,3.1
2019-02-17T06:29:35.097Z,3.15
2019-02-17T06:30:34.765Z,3.16
2019-02-17T06:31:34.990Z,3.2
2019-02-17T06:32:34.982Z,3.07
2019-02-17T06:33:34.956Z,3.13
2019-02-17T06:34:34.935Z,3.15
2019-02-17T06:35:35.244Z,3.09
2019-02-17T06:36:35.146Z,3.1
2019-02-17T06:37:34.869Z,3.2
2019-02-17T06:38:35.118Z,3.13
2019-02-17T06:39:35.156Z,3.15
2019-02-17T06:40:34.812Z,3.27
2019-02-17T06:41:34.536Z,3.28
2019-02-17T06:42:34.764Z,3.28
2019-02-17T06:43:34.762Z,3.3
2019-02-17T06:44:34.734Z,3.27
2019-02-17T06:45:34.702Z,3.28
2019-02-17T06:46:34.936Z,3.34
2019-02-17T06:47:34.939Z,3.44
2019-02-17T06:48:34.653Z,3.49
2019-02-17T06:49:34.871Z,3.47
2019-02-17T06:50:35.130Z,3.5
2019-02-17T06:51:34.326Z,3.6
2019-02-17T06:52:34.821Z,3.57
2019-02-17T06:53:34.531Z,3.6
2019-02-17T06:54:34.510Z,3.61
2019-02-17T06:55:34.495Z,3.58
2019-02-17T06:56:34.476Z,3.54
2019-02-17T06:57:34.701Z,3.61
2019-02-17T06:58:34.689Z,3.61
2019-02-17T06:59:34.660Z,3.64
2019-02-17T07:00:34.131Z,3.65
2019-02-17T07:01:34.368Z,3.6
2019-02-17T07:02:34.446Z,3.62
2019-02-17T07:03:34.624Z,3.76
2019-02-17T07:04:34.576Z,3.79
2019-02-17T07:05:34.329Z,3.82
2019-02-17T07:06:34.006Z,3.75
2019-02-17T07:07:34.812Z,3.78
2019-02-17T07:08:34.604Z,3.79
2019-02-17T07:09:34.446Z,3.76
2019-02-17T07:10:34.247Z,3.88
2019-02-17T07:11:33.914Z,3.9
2019-02-17T07:12:34.129Z,3.88
2019-02-17T07:13:34.365Z,3.94
2019-02-17T07:14:34.351Z,3.97
2019-02-17T07:15:34.328Z,4.01
2019-02-17T07:16:34.045Z,3.98
2019-02-17T07:17:34.034Z,4.07
2019-02-17T07:18:34.281Z,4.1
2019-02-17T07:19:33.737Z,4.08
2019-02-17T07:20:33.959Z,4.04
2019-02-17T07:21:34.199Z,4.04
2019-02-17T07:22:34.175Z,4.08
2019-02-17T07:23:34.167Z,4.18
2019-02-17T07:24:34.201Z,4.12
2019-02-17T07:25:35.359Z,4.18
2019-02-17T07:26:33.920Z,4.18
2019-02-17T07:27:33.841Z,4.22
2019-02-17T07:28:33.799Z,4.25
2019-02-17T07:29:33.796Z,4.22
2019-02-17T07:30:33.505Z,4.26
2019-02-17T07:31:39.978Z,4.24
2019-02-17T07:32:33.972Z,4.24
2019-02-17T07:33:33.955Z,4.37
2019-02-17T07:34:33.687Z,4.36
2019-02-17T07:35:33.613Z,4.34
2019-02-17T07:36:33.901Z,4.34
2019-02-17T07:37:38.596Z,4.37
2019-02-17T07:38:33.880Z,4.42
2019-02-17T07:39:33.600Z,4.44
2019-02-17T07:40:33.585Z,4.5
2019-02-17T07:41:33.530Z,4.54
2019-02-17T07:42:33.511Z,4.55
2019-02-17T07:43:33.846Z,4.61
2019-02-17T07:44:33.755Z,4.62
2019-02-17T07:45:33.495Z,4.62
2019-02-17T07:46:33.174Z,4.58
2019-02-17T07:47:33.416Z,4.65
2019-02-17T07:48:33.452Z,4.75
2019-02-17T07:49:33.382Z,4.79
2019-02-17T07:50:33.366Z,4.75
2019-02-17T07:51:33.590Z,4.8
2019-02-17T07:52:34.297Z,4.79
2019-02-17T07:53:33.031Z,4.84
2019-02-17T07:54:33.332Z,4.95
2019-02-17T07:55:33.000Z,4.94
2019-02-17T07:56:32.977Z,4.98
2019-02-17T07:57:33.478Z,5.1
2019-02-17T07:58:33.211Z,5.05
2019-02-17T07:59:33.480Z,5.16
2019-02-17T08:00:33.153Z,5.16
2019-02-17T08:01:33.383Z,5.19
2019-02-17T08:02:32.862Z,5.32
2019-02-17T08:03:33.114Z,5.34
2019-02-17T08:04:33.331Z,5.32
2019-02-17T08:05:33.058Z,5.41
2019-02-17T08:06:33.300Z,5.48
2019-02-17T08:07:32.756Z,5.49
2019-02-17T08:08:32.989Z,5.46
2019-02-17T08:09:32.726Z,5.5
2019-02-17T08:10:32.957Z,5.59
2019-02-17T08:11:32.960Z,5.59
2019-02-17T08:12:32.655Z,5.68
2019-02-17T08:13:32.634Z,5.71
2019-02-17T08:14:33.138Z,5.64
2019-02-17T08:15:33.111Z,5.71
2019-02-17T08:16:32.860Z,5.83
2019-02-17T08:17:32.818Z,5.78
2019-02-17T08:18:33.052Z,5.78
2019-02-17T08:19:32.521Z,5.96
2019-02-17T08:20:32.762Z,5.88
2019-02-17T08:21:32.740Z,5.89
2019-02-17T08:22:32.716Z,5.93
2019-02-17T08:23:32.960Z,6.01
2019-02-17T08:24:32.929Z,6.1
2019-02-17T08:25:32.661Z,6.16
2019-02-17T08:26:32.641Z,6.13
2019-02-17T08:27:32.624Z,6.25
2019-02-17T08:28:32.342Z,6.21
2019-02-17T08:29:32.432Z,6.33
2019-02-17T08:30:32.562Z,6.29
2019-02-17T08:31:32.797Z,6.5
2019-02-17T08:32:32.517Z,6.58
2019-02-17T08:33:32.519Z,6.58
2019-02-17T08:34:32.506Z,6.76
2019-02-17T08:35:32.468Z,6.73
2019-02-17T08:36:32.738Z,6.83
2019-02-17T08:37:32.682Z,6.87
2019-02-17T08:38:32.663Z,6.95
2019-02-17T08:39:32.402Z,6.97
2019-02-17T08:40:32.378Z,6.99
2019-02-17T08:41:32.374Z,7.13
2019-02-17T08:42:32.336Z,7.29
2019-02-17T08:43:32.319Z,7.37
2019-02-17T08:44:32.559Z,7.58
2019-02-17T08:45:32.275Z,7.81
2019-02-17T08:46:32.509Z,8.07
2019-02-17T08:47:31.990Z,8.29
2019-02-17T08:48:32.476Z,8.62
2019-02-17T08:49:32.211Z,8.75
2019-02-17T08:50:32.514Z,8.94
2019-02-17T08:51:32.186Z,9.24
2019-02-17T08:52:32.161Z,9.71
2019-02-17T08:53:32.132Z,10.19
2019-02-17T08:54:32.118Z,10.7
2019-02-17T08:55:31.924Z,10.96
2019-02-17T08:56:32.083Z,10.98
2019-02-17T08:57:32.338Z,10.95
2019-02-17T08:58:32.050Z,11.1
2019-02-17T08:59:32.042Z,11.35
2019-02-17T09:00:31.762Z,11.68
2019-02-17T09:01:32.256Z,12.12
2019-02-17T09:02:32.006Z,12.38
2019-02-17T09:03:31.983Z,12.44
2019-02-17T09:04:31.702Z,12.46
2019-02-17T09:05:31.949Z,12.49
2019-02-17T09:06:32.222Z,12.67
2019-02-17T09:07:31.909Z,12.67
2019-02-17T09:08:31.894Z,12.71
2019-02-17T09:09:31.870Z,12.84
2019-02-17T09:10:31.862Z,13.02
2019-02-17T09:11:32.170Z,13.2
2019-02-17T09:12:32.078Z,13.21
2019-02-17T09:13:31.809Z,13.38
2019-02-17T09:14:32.051Z,13.32
2019-02-17T09:15:31.779Z,13.38
2019-02-17T09:16:31.792Z,13.43
2019-02-17T09:17:31.499Z,13.54
2019-02-17T09:18:32.095Z,13.54
2019-02-17T09:19:31.729Z,13.32
2019-02-17T09:20:31.763Z,13.18
2019-02-17T09:21:31.751Z,13.33
2019-02-17T09:22:31.677Z,13.46
2019-02-17T09:23:31.671Z,13.69
2019-02-17T09:24:31.669Z,13.81
2019-02-17T09:25:31.726Z,13.96
2019-02-17T09:26:31.964Z,14.13
2019-02-17T09:27:31.888Z,14.13
2019-02-17T09:28:31.866Z,14.35
2019-02-17T09:29:31.862Z,14.46
2019-02-17T09:30:31.361Z,14.52
2019-02-17T09:31:31.310Z,14.74
2019-02-17T09:32:31.588Z,14.91
2019-02-17T09:33:31.530Z,15.11
2019-02-17T09:34:31.617Z,15.12
2019-02-17T09:35:31.444Z,15.11
2019-02-17T09:36:31.744Z,15.05
2019-02-17T09:37:31.477Z,14.78
2019-02-17T09:38:31.474Z,14.5
2019-02-17T09:39:31.727Z,14.42
2019-02-17T09:40:31.811Z,14.46
2019-02-17T09:41:31.435Z,14.57
2019-02-17T09:42:31.413Z,14.81
2019-02-17T09:43:31.658Z,15.02
2019-02-17T09:44:31.133Z,14.94
2019-02-17T09:45:31.379Z,14.86
2019-02-17T09:46:31.625Z,14.81
2019-02-17T09:47:31.090Z,14.87
2019-02-17T09:48:31.333Z,14.87
2019-02-17T09:49:31.659Z,14.94
2019-02-17T09:50:31.763Z,14.99
2019-02-17T09:51:31.552Z,14.8
2019-02-17T09:52:31.543Z,14.49
2019-02-17T09:53:31.264Z,14.5
2019-02-17T09:54:31.278Z,14.62
2019-02-17T09:55:31.245Z,14.74
2019-02-17T09:56:31.232Z,14.95
2019-02-17T09:57:31.216Z,15.24
2019-02-17T09:58:31.483Z,15.41
2019-02-17T09:59:31.502Z,15.42
2019-02-17T10:00:31.241Z,15.41
2019-02-17T10:01:30.929Z,15.28
2019-02-17T10:02:31.537Z,15.3
2019-02-17T10:03:30.952Z,15.27
2019-02-17T10:04:30.898Z,15.08
2019-02-17T10:05:31.178Z,14.83
2019-02-17T10:06:31.400Z,14.78
2019-02-17T10:07:30.841Z,14.69
2019-02-17T10:08:31.086Z,14.69
2019-02-17T10:09:31.395Z,14.75
2019-02-17T10:10:31.325Z,15.09
2019-02-17T10:11:31.349Z,15.6
2019-02-17T10:12:31.046Z,15.88
2019-02-17T10:13:31.035Z,16.01
2019-02-17T10:14:31.274Z,16.2
2019-02-17T10:15:31.255Z,16.33
2019-02-17T10:16:31.071Z,16.33
2019-02-17T10:17:30.983Z,16.52
2019-02-17T10:18:30.974Z,16.53
2019-02-17T10:19:30.703Z,16.7
2019-02-17T10:20:30.970Z,16.71
2019-02-17T10:21:31.198Z,17.03
2019-02-17T10:22:31.191Z,17.23
2019-02-17T10:23:31.416Z,17.35
2019-02-17T10:24:31.189Z,17.54
2019-02-17T10:25:30.899Z,17.43
2019-02-17T10:26:31.174Z,17.3
2019-02-17T10:27:31.183Z,16.81
2019-02-17T10:28:31.151Z,16.73
2019-02-17T10:29:30.622Z,16.52
2019-02-17T10:30:30.862Z,16.27
2019-02-17T10:31:31.096Z,16.27
2019-02-17T10:32:41.854Z,15.99
2019-02-17T10:33:30.855Z,15.94
2019-02-17T10:34:30.809Z,15.88
2019-02-17T10:35:30.544Z,15.7
2019-02-17T10:36:31.057Z,15.72
2019-02-17T10:37:30.531Z,15.75
2019-02-17T10:38:31.049Z,15.84
2019-02-17T10:39:30.510Z,16.04
2019-02-17T10:40:31.014Z,16.15
2019-02-17T10:41:31.006Z,16
2019-02-17T10:42:30.988Z,16.16
2019-02-17T10:43:30.727Z,16.25
2019-02-17T10:44:30.720Z,16.26
2019-02-17T10:45:30.722Z,16.31
2019-02-17T10:46:31.004Z,16.58
2019-02-17T10:47:30.705Z,16.9
2019-02-17T10:48:30.936Z,16.98
2019-02-17T10:49:30.931Z,17.06
2019-02-17T10:50:30.657Z,17.1
2019-02-17T10:51:31.447Z,17.14
2019-02-17T10:52:30.642Z,17.06
2019-02-17T10:53:30.891Z,16.98
2019-02-17T10:54:30.884Z,16.96
2019-02-17T10:55:30.878Z,17.06
2019-02-17T10:56:30.887Z,17.1
2019-02-17T10:57:30.852Z,17.26
2019-02-17T10:58:30.591Z,17.17
2019-02-17T10:59:30.836Z,17.06
2019-02-17T11:00:30.572Z,16.95
2019-02-17T11:01:30.834Z,16.85
2019-02-17T11:02:30.550Z,16.95
2019-02-17T11:03:30.806Z,17.07
2019-02-17T11:04:30.858Z,16.89
2019-02-17T11:05:30.536Z,16.95
2019-02-17T11:06:30.533Z,16.85
2019-02-17T11:07:30.505Z,16.89
2019-02-17T11:08:30.751Z,16.88
2019-02-17T11:09:30.517Z,16.88
2019-02-17T11:10:30.480Z,17.06
2019-02-17T11:11:30.471Z,16.99
2019-02-17T11:12:30.729Z,17.18
2019-02-17T11:13:30.751Z,17.47
2019-02-17T11:14:30.448Z,17.32
2019-02-17T11:15:30.709Z,17.06
2019-02-17T11:16:30.888Z,17.11
2019-02-17T11:17:30.422Z,17.14
2019-02-17T11:18:30.664Z,17.23
2019-02-17T11:19:30.405Z,17.33
2019-02-17T11:20:30.667Z,17.4
2019-02-17T11:21:30.699Z,17.36
2019-02-17T11:22:30.729Z,17.33
2019-02-17T11:23:30.636Z,17.32
2019-02-17T11:24:30.367Z,17.43
2019-02-17T11:25:30.620Z,17.5
2019-02-17T11:26:30.343Z,17.36
2019-02-17T11:27:30.640Z,17.48
2019-02-17T11:28:30.330Z,17.57
2019-02-17T11:29:30.355Z,17.84
2019-02-17T11:30:30.609Z,17.71
2019-02-17T11:31:30.323Z,17.84
2019-02-17T11:32:32.260Z,17.87
2019-02-17T11:33:30.286Z,18.12
2019-02-17T11:34:30.302Z,18.18
2019-02-17T11:35:32.417Z,18.34
2019-02-17T11:36:30.513Z,18.46
2019-02-17T11:37:30.256Z,18.31
2019-02-17T11:38:30.290Z,18.58
2019-02-17T11:39:30.295Z,18.64
2019-02-17T11:40:29.982Z,18.74
2019-02-17T11:41:30.518Z,18.99
2019-02-17T11:42:30.275Z,19.05
2019-02-17T11:43:30.209Z,19.14
2019-02-17T11:44:31.853Z,19.28
2019-02-17T11:45:30.451Z,19.29
2019-02-17T11:46:30.448Z,19.1
2019-02-17T11:47:30.549Z,18.87
2019-02-17T11:48:30.435Z,19.23
2019-02-17T11:49:30.441Z,19.4
2019-02-17T11:50:30.460Z,19.78
2019-02-17T11:51:30.163Z,20.09
2019-02-17T11:52:30.160Z,20.31
2019-02-17T11:53:30.404Z,20.23
2019-02-17T11:54:30.180Z,20.08
2019-02-17T11:55:30.146Z,19.75
2019-02-17T11:56:30.169Z,19.54
2019-02-17T11:57:30.124Z,19.57
2019-02-17T11:58:30.379Z,19.97
2019-02-17T11:59:30.117Z,19.55
2019-02-17T12:00:29.862Z,19.54
2019-02-17T12:01:30.120Z,19.6
2019-02-17T12:02:30.110Z,19.51
2019-02-17T12:03:30.099Z,19.55
2019-02-17T12:04:30.090Z,19.36
2019-02-17T12:05:30.087Z,19.48
2019-02-17T12:06:30.073Z,19.66
2019-02-17T12:07:30.325Z,20.08
2019-02-17T12:08:30.079Z,20.38
2019-02-17T12:09:30.349Z,20.38
2019-02-17T12:10:30.314Z,20.61
2019-02-17T12:11:30.318Z,20.76
2019-02-17T12:12:30.370Z,20.68
2019-02-17T12:13:30.311Z,20.96
2019-02-17T12:14:30.056Z,20.86
2019-02-17T12:15:30.051Z,21.24
2019-02-17T12:16:39.124Z,21.27
2019-02-17T12:17:30.342Z,21.53
2019-02-17T12:18:30.299Z,21.72
2019-02-17T12:19:29.855Z,21.99
2019-02-17T12:20:30.050Z,21.97
2019-02-17T12:21:30.272Z,21.81
2019-02-17T12:22:29.747Z,21.78
2019-02-17T12:23:29.912Z,21.64
2019-02-17T12:24:30.254Z,21.81
2019-02-17T12:25:29.746Z,22.01
2019-02-17T12:26:29.993Z,21.95
2019-02-17T12:27:30.259Z,22.13
2019-02-17T12:28:30.298Z,22.07
2019-02-17T12:29:29.747Z,22.01
2019-02-17T12:30:30.231Z,21.97
2019-02-17T12:31:29.997Z,21.69
2019-02-17T12:32:29.721Z,21.76
2019-02-17T12:33:29.968Z,22.02
2019-02-17T12:34:30.228Z,22.13
2019-02-17T12:35:29.725Z,21.95
2019-02-17T12:36:29.767Z,21.61
2019-02-17T12:37:30.263Z,21.59
2019-02-17T12:38:30.211Z,21.91
2019-02-17T12:39:29.985Z,22.13
2019-02-17T12:40:30.211Z,22.28
2019-02-17T12:41:29.945Z,22.56
2019-02-17T12:42:29.949Z,22.78
2019-02-17T12:43:29.990Z,23.01
2019-02-17T12:44:29.952Z,23.14
2019-02-17T12:45:30.196Z,22.65
2019-02-17T12:46:29.928Z,22.35
2019-02-17T12:47:30.187Z,22.31
2019-02-17T12:48:29.941Z,22.34
2019-02-17T12:49:29.935Z,22.57
2019-02-17T12:50:30.181Z,22.19
2019-02-17T12:51:30.196Z,22.07
2019-02-17T12:52:30.180Z,21.85
2019-02-17T12:53:30.293Z,22.07
2019-02-17T12:54:34.368Z,22.01
2019-02-17T12:55:30.181Z,22.35
2019-02-17T12:56:30.226Z,22.54
2019-02-17T12:57:29.915Z,22.74
2019-02-17T12:58:34.810Z,22.27
2019-02-17T12:59:29.903Z,22.5
2019-02-17T13:00:29.904Z,22.89
2019-02-17T13:01:29.900Z,23.14
2019-02-17T13:02:29.920Z,23.17
2019-02-17T13:03:33.699Z,23.11
2019-02-17T13:04:29.897Z,23.26
2019-02-17T13:05:30.165Z,23.27
2019-02-17T13:06:31.265Z,23.02
2019-02-17T13:07:29.891Z,23.11
2019-02-17T13:08:29.902Z,23.29
2019-02-17T13:09:30.150Z,23.31
2019-02-17T13:10:30.145Z,23.38
2019-02-17T13:11:30.138Z,23.49
2019-02-17T13:12:29.886Z,23.55